Time;durP1;ratioP1;P1;durP2;ratioP2;P2;SDS_P1;SDS_P2;PMS_P1;PMS_P2;Temp;Humidity;BMP_temperature;BMP_pressure;BME280_temperature;BME280_humidity;BME280_pressure;Samples;Min_cycle;Max_cycle;Signal;HPM_P1;HPM_P2
2022/06/08 05:52:24;;;;;;;;;;;;;;;22.60;100.00;97897.09;4880924;29;19991;-72
2022/06/08 05:54:52;;;;;;;;;;;;;;;22.58;100.00;97891.09;4898371;29;19948;-71
2022/06/08 05:57:20;;;;;;;;;;;;;;;22.53;100.00;97893.84;4887442;29;19953;-72
2022/06/08 05:59:47;;;;;;;;;;;;;;;22.50;100.00;97889.91;4896435;29;19956;-72
2022/06/08 06:02:16;;;;;;;;;;;;;;;22.40;100.00;97891.25;4897164;29;20343;-72
2022/06/08 06:04:46;;;;;;;;;;;;;;;22.40;100.00;97891.25;4889228;29;19950;-71
2022/06/08 06:07:15;;;;;;;;;;;;;;;22.38;100.00;97893.78;4883633;29;19949;-72
2022/06/08 06:10:18;;;;;;;;;;;;;;;22.31;100.00;97897.03;4873170;29;19961;-77
2022/06/08 06:12:46;;;;;;;;;;;;;;;22.32;100.00;97892.91;4875537;29;19950;-78
2022/06/08 06:15:15;;;;;;;;;;;;;;;22.16;100.00;97902.66;4892175;29;20327;-77
2022/06/08 06:17:48;;;;;;;;;;;;;;;22.12;100.00;97892.72;4897381;29;20525;-78
2022/06/08 06:20:16;;;;;;;;;;;;;;;22.09;100.00;97891.66;4900902;29;19982;-78
2022/06/08 06:23:05;;;;;;;;;;;;;;;21.93;100.00;97899.81;4877751;29;20399;-78
2022/06/08 06:25:54;;;;;;;;;;;;;;;21.73;100.00;97888.19;4894331;29;19951;-77
2022/06/08 06:28:44;;;;;;;;;;;;;;;21.60;100.00;97891.25;4865634;29;19952;-77
2022/06/08 06:31:46;;;;;;;;;;;;;;;21.44;100.00;97894.50;4896856;29;19956;-78
2022/06/08 06:34:19;;;;;;;;;;;;;;;21.36;100.00;97902.59;4892529;29;19956;-78
2022/06/08 06:36:49;;;;;;;;;;;;;;;21.32;100.00;97901.97;4882153;29;19958;-78
2022/06/08 06:39:17;;;;;;;;;;;;;;;21.40;100.00;97903.19;4897958;29;20581;-77
2022/06/08 06:41:45;;;;;;;;;;;;;;;21.32;100.00;97899.13;4895211;29;19958;-78
2022/06/08 06:44:14;;;;;;;;;;;;;;;21.24;100.00;97900.75;4881994;29;20403;-78
2022/06/08 06:47:00;;;;;;;;;;;;;;;21.15;100.00;97900.75;4897442;29;19954;-77
2022/06/08 06:49:32;;;;;;;;;;;;;;;21.10;100.00;97895.75;4897878;29;19951;-78
2022/06/08 06:52:00;;;;;;;;;;;;;;;21.12;100.00;97898.88;4879996;29;19968;-77
2022/06/08 06:54:27;;;;;;;;;;;;;;;21.30;100.00;97898.06;4882231;29;19962;-77
2022/06/08 06:56:55;;;;;;;;;;;;;;;21.56;100.00;97894.31;4896042;29;19983;-78
2022/06/08 06:59:25;;;;;;;;;;;;;;;21.81;100.00;97892.28;4887348;29;19948;-76
2022/06/08 07:01:53;;;;;;;;;;;;;;;21.97;100.00;97901.22;4896196;29;19973;-72
2022/06/08 07:04:23;;;;;;;;;;;;;;;22.13;100.00;97892.25;4896930;29;19968;-72
2022/06/08 07:06:53;;;;;;;;;;;;;;;22.18;100.00;97890.78;4893558;29;19952;-72
2022/06/08 07:09:20;;;;;;;;;;;;;;;22.32;100.00;97898.59;4875860;29;19955;-71
2022/06/08 07:11:50;;;;;;;;;;;;;;;22.30;100.00;97891.81;4886900;29;19952;-71
2022/06/08 07:14:22;;;;;;;;;;;;;;;22.33;100.00;97897.31;4888894;29;19960;-71
2022/06/08 07:17:05;;;;;;;;;;;;;;;22.48;100.00;97894.50;4886649;29;19950;-71
2022/06/08 07:19:37;;;;;;;;;;;;;;;22.41;100.00;97883.50;4865305;29;19955;-71
2022/06/08 07:22:05;;;;;;;;;;;;;;;22.37;100.00;97883.69;4895501;29;19954;-71
2022/06/08 07:24:33;;;;;;;;;;;;;;;22.29;100.00;97879.63;4885223;29;20049;-71
2022/06/08 07:27:02;;;;;;;;;;;;;;;22.32;100.00;97886.41;4879511;29;19956;-71
2022/06/08 07:29:29;;;;;;;;;;;;;;;22.50;100.00;97881.34;4890525;29;19950;-71
2022/06/08 07:31:57;;;;;;;;;;;;;;;22.65;100.00;97887.09;4873810;29;19969;-71
2022/06/08 07:34:24;;;;;;;;;;;;;;;22.84;100.00;97879.94;4880525;29;19953;-71
2022/06/08 07:36:52;;;;;;;;;;;;;;;22.98;100.00;97887.75;4885248;29;20245;-71
2022/06/08 07:39:20;;;;;;;;;;;;;;;23.13;100.00;97885.69;4892379;29;19961;-71
2022/06/08 07:41:49;;;;;;;;;;;;;;;23.30;100.00;97883.88;4885206;29;19987;-71
2022/06/08 07:44:17;;;;;;;;;;;;;;;23.54;100.00;97878.09;4884695;29;19971;-71
2022/06/08 07:46:45;;;;;;;;;;;;;;;23.75;100.00;97882.56;4885229;29;19950;-71
2022/06/08 07:51:59;;;;;;;;;;;;;;;23.86;100.00;97865.59;4884757;29;19979;-71
2022/06/08 07:54:28;;;;;;;;;;;;;;;23.85;100.00;97872.56;4886611;29;19958;-71
2022/06/08 07:56:55;;;;;;;;;;;;;;;23.89;100.00;97876.00;4872364;29;19952;-71
2022/06/08 07:59:23;;;;;;;;;;;;;;;23.98;100.00;97880.81;4880021;29;19951;-71
2022/06/08 08:01:52;;;;;;;;;;;;;;;24.04;100.00;97875.94;4881695;29;19952;-71
2022/06/08 08:04:19;;;;;;;;;;;;;;;23.92;100.00;97879.94;4863890;29;19972;-71
2022/06/08 08:06:47;;;;;;;;;;;;;;;24.05;100.00;97875.47;4866572;29;19957;-71
2022/06/08 08:09:18;;;;;;;;;;;;;;;24.02;100.00;97867.88;4881416;29;19951;-71
2022/06/08 08:11:47;;;;;;;;;;;;;;;24.18;100.00;97861.63;4878896;29;20030;-71
2022/06/08 08:14:14;;;;;;;;;;;;;;;24.22;100.00;97864.28;4884088;29;19949;-71
2022/06/08 08:16:43;;;;;;;;;;;;;;;24.19;100.00;97859.56;4883429;29;19952;-71
2022/06/08 08:19:11;;;;;;;;;;;;;;;24.18;100.00;97860.84;4884823;29;19951;-71
2022/06/08 08:21:39;;;;;;;;;;;;;;;24.32;100.00;97870.63;4883807;29;20270;-71
2022/06/08 08:24:07;;;;;;;;;;;;;;;24.30;100.00;97861.78;4884139;29;20285;-71
2022/06/08 08:26:34;;;;;;;;;;;;;;;24.23;100.00;97863.00;4883748;29;19950;-71
2022/06/08 08:29:02;;;;;;;;;;;;;;;24.31;100.00;97854.75;4878293;29;19947;-71
2022/06/08 08:31:29;;;;;;;;;;;;;;;24.24;100.00;97855.97;4884460;29;20347;-71
2022/06/08 08:33:57;;;;;;;;;;;;;;;24.50;100.00;97851.09;4877402;29;20320;-71
2022/06/08 08:36:24;;;;;;;;;;;;;;;24.62;100.00;97852.03;4884285;29;20218;-71
2022/06/08 08:38:51;;;;;;;;;;;;;;;24.30;100.00;97854.00;4884246;29;19956;-71
2022/06/08 08:44:09;;;;;;;;;;;;;;;24.50;100.00;97848.25;4884462;29;19968;-71
2022/06/08 08:46:36;;;;;;;;;;;;;;;24.58;100.00;97846.50;4884516;29;19951;-71
2022/06/08 08:49:06;;;;;;;;;;;;;;;24.72;100.00;97847.72;4883537;29;19950;-71
2022/06/08 08:51:33;;;;;;;;;;;;;;;24.67;100.00;97845.59;4881719;29;19979;-71
2022/06/08 08:54:04;;;;;;;;;;;;;;;24.67;100.00;97840.63;4883999;29;19971;-71
2022/06/08 08:56:35;;;;;;;;;;;;;;;24.69;100.00;97849.50;4879738;29;19959;-71
2022/06/08 08:59:09;;;;;;;;;;;;;;;24.48;100.00;97844.31;4883912;29;19952;-71
2022/06/08 09:01:38;;;;;;;;;;;;;;;24.60;100.00;97851.75;4883723;29;19959;-71
2022/06/08 09:04:12;;;;;;;;;;;;;;;24.39;100.00;97844.47;4883563;29;20261;-71
2022/06/08 09:06:39;;;;;;;;;;;;;;;24.50;100.00;97842.53;4883862;29;20238;-71
2022/06/08 09:09:19;;;;;;;;;;;;;;;24.54;100.00;97845.97;4879111;29;19952;-71
2022/06/08 09:11:47;;;;;;;;;;;;;;;24.35;100.00;97855.34;4882504;29;20337;-71
2022/06/08 09:14:24;;;;;;;;;;;;;;;24.34;100.00;97850.91;4871866;29;19951;-71
2022/06/08 09:17:12;;;;;;;;;;;;;;;24.46;100.00;97839.09;4883395;29;19959;-70
2022/06/08 09:19:43;;;;;;;;;;;;;;;24.36;100.00;97851.97;4881571;29;19956;-70
2022/06/08 09:22:11;;;;;;;;;;;;;;;24.43;100.00;97845.06;4883142;29;19979;-70
2022/06/08 09:24:41;;;;;;;;;;;;;;;24.40;100.00;97844.00;4884037;29;19972;-70
2022/06/08 09:27:16;;;;;;;;;;;;;;;24.64;100.00;97843.72;4882254;29;19951;-70
2022/06/08 09:30:06;;;;;;;;;;;;;;;24.70;100.00;97835.97;4882628;29;19951;-70
2022/06/08 09:32:52;;;;;;;;;;;;;;;24.34;100.00;97828.03;4882501;29;19951;-71
2022/06/08 09:35:46;;;;;;;;;;;;;;;24.34;100.00;97830.91;4883381;29;19958;-71
2022/06/08 09:38:14;;;;;;;;;;;;;;;24.61;100.00;97824.72;4879527;29;20031;-71
2022/06/08 09:40:54;;;;;;;;;;;;;;;24.57;100.00;97827.03;4882502;29;20613;-71
2022/06/08 09:43:21;;;;;;;;;;;;;;;24.47;100.00;97820.69;4875603;29;20513;-71
2022/06/08 09:45:48;;;;;;;;;;;;;;;24.48;100.00;97827.16;4882080;29;19961;-71
2022/06/08 09:51:26;;;;;;;;;;;;;;;24.58;100.00;97826.50;4883297;29;19974;-71
2022/06/08 09:54:03;;;;;;;;;;;;;;;24.81;100.00;97824.69;4883091;29;19981;-71
2022/06/08 09:56:48;;;;;;;;;;;;;;;24.80;100.00;97821.03;4882877;29;19979;-71
2022/06/08 09:59:35;;;;;;;;;;;;;;;24.97;100.00;97815.47;4882688;29;19957;-71
2022/06/08 10:02:02;;;;;;;;;;;;;;;25.04;100.00;97812.16;4897314;29;19954;-71
2022/06/08 10:04:38;;;;;;;;;;;;;;;25.02;100.00;97817.59;4880960;29;20396;-71
2022/06/08 10:07:11;;;;;;;;;;;;;;;25.13;100.00;97814.84;4882535;29;19959;-72
2022/06/08 10:09:49;;;;;;;;;;;;;;;25.32;100.00;97818.91;4882966;29;19959;-71
2022/06/08 10:12:31;;;;;;;;;;;;;;;25.29;100.00;97811.31;4885609;29;19960;-71
2022/06/08 10:15:03;;;;;;;;;;;;;;;25.39;100.00;97811.91;4882287;29;19951;-71
2022/06/08 10:17:37;;;;;;;;;;;;;;;25.22;100.00;97802.41;4882472;29;19945;-71
2022/06/08 10:20:13;;;;;;;;;;;;;;;25.20;100.00;97799.28;4883305;29;20239;-71
2022/06/08 10:22:43;;;;;;;;;;;;;;;25.23;100.00;97801.94;4881668;29;19960;-71
2022/06/08 10:25:30;;;;;;;;;;;;;;;25.25;100.00;97796.47;4882431;29;19965;-71
2022/06/08 10:27:59;;;;;;;;;;;;;;;25.37;100.00;97803.84;4879721;29;19952;-72
2022/06/08 10:30:41;;;;;;;;;;;;;;;25.43;100.00;97790.34;4881935;29;19950;-70
2022/06/08 10:33:23;;;;;;;;;;;;;;;25.23;100.00;97796.19;4880281;29;19951;-70
2022/06/08 10:35:55;;;;;;;;;;;;;;;25.26;100.00;97792.31;4894690;29;19952;-70
2022/06/08 10:38:27;;;;;;;;;;;;;;;25.41;100.00;97786.41;4882045;29;20323;-70
2022/06/08 10:41:01;;;;;;;;;;;;;;;25.21;100.00;97790.19;4881583;29;20355;-70
2022/06/08 10:43:30;;;;;;;;;;;;;;;25.33;100.00;97785.34;4879795;29;19951;-70
2022/06/08 10:46:03;;;;;;;;;;;;;;;25.23;100.00;97784.75;4882896;29;19973;-70
2022/06/08 10:48:36;;;;;;;;;;;;;;;25.35;100.00;97783.53;4879799;29;20219;-70
2022/06/08 10:51:20;;;;;;;;;;;;;;;25.37;100.00;97777.28;4881839;29;19986;-70
2022/06/08 10:56:55;;;;;;;;;;;;;;;25.46;100.00;97782.09;4883709;29;19958;-70
2022/06/08 10:59:26;;;;;;;;;;;;;;;25.38;100.00;97773.16;4895383;29;19959;-70
2022/06/08 11:01:57;;;;;;;;;;;;;;;25.37;100.00;97777.28;4887273;29;20236;-70
2022/06/08 11:04:31;;;;;;;;;;;;;;;25.43;100.00;97766.69;4886217;29;20261;-70
2022/06/08 11:07:17;;;;;;;;;;;;;;;25.61;100.00;97774.09;4885306;29;19952;-70
2022/06/08 11:09:46;;;;;;;;;;;;;;;25.41;100.00;97772.09;4869264;29;19951;-70
2022/06/08 11:12:30;;;;;;;;;;;;;;;25.49;100.00;97769.59;4885766;29;19950;-70
2022/06/08 11:15:00;;;;;;;;;;;;;;;25.31;100.00;97774.38;4883866;29;19953;-70
2022/06/08 11:17:27;;;;;;;;;;;;;;;25.37;100.00;97757.25;4882685;29;19957;-70
2022/06/08 11:20:14;;;;;;;;;;;;;;;25.51;100.00;97762.06;4885379;29;19949;-70
2022/06/08 11:22:50;;;;;;;;;;;;;;;25.66;100.00;97761.88;4876056;29;19954;-70
2022/06/08 11:25:21;;;;;;;;;;;;;;;25.64;100.00;97758.75;4874471;29;19967;-70
2022/06/08 11:28:08;;;;;;;;;;;;;;;25.43;100.00;97749.50;4883537;29;19981;-71
2022/06/08 11:30:38;;;;;;;;;;;;;;;25.39;100.00;97746.06;4885703;29;19950;-70
2022/06/08 11:33:14;;;;;;;;;;;;;;;25.37;100.00;97742.94;4884517;29;19951;-70
2022/06/08 11:35:41;;;;;;;;;;;;;;;25.33;100.00;97733.81;4884495;29;19952;-70
2022/06/08 11:38:11;;;;;;;;;;;;;;;25.42;100.00;97740.13;4887198;29;19945;-70
2022/06/08 11:40:39;;;;;;;;;;;;;;;25.56;100.00;97734.75;4884788;29;20342;-70
2022/06/08 11:43:15;;;;;;;;;;;;;;;25.69;100.00;97729.34;4881332;29;19958;-70
2022/06/08 11:45:44;;;;;;;;;;;;;;;25.92;100.00;97723.19;4885074;29;19964;-70
2022/06/08 11:48:17;;;;;;;;;;;;;;;25.68;100.00;97730.63;4883243;29;19949;-70
2022/06/08 11:50:47;;;;;;;;;;;;;;;25.38;100.00;97722.38;4879025;29;19979;-70
2022/06/08 11:53:15;;;;;;;;;;;;;;;25.36;100.00;97718.47;4870160;29;19956;-70
2022/06/08 11:56:03;;;;;;;;;;;;;;;25.35;100.00;97714.84;4883178;29;19952;-70
2022/06/08 11:58:31;;;;;;;;;;;;;;;25.38;100.00;97708.06;4872456;29;19960;-70
2022/06/08 12:01:06;;;;;;;;;;;;;;;25.23;100.00;97703.84;4880326;29;19951;-70
2022/06/08 12:03:38;;;;;;;;;;;;;;;25.08;100.00;97698.28;4875237;29;20352;-70
2022/06/08 12:06:25;;;;;;;;;;;;;;;24.97;100.00;97700.25;4884591;29;20413;-70
2022/06/08 12:09:00;;;;;;;;;;;;;;;25.08;100.00;97694.63;4892240;29;19956;-70
2022/06/08 12:11:29;;;;;;;;;;;;;;;25.07;100.00;97690.19;4899462;29;19956;-70
2022/06/08 12:14:11;;;;;;;;;;;;;;;25.07;100.00;97693.06;4884444;29;19951;-70
2022/06/08 12:16:51;;;;;;;;;;;;;;;24.99;100.00;97692.75;4880150;29;20472;-70
2022/06/08 12:19:22;;;;;;;;;;;;;;;24.98;100.00;97698.97;4876728;29;19957;-70
2022/06/08 12:22:05;;;;;;;;;;;;;;;24.97;100.00;97695.31;4880375;29;19952;-70
2022/06/08 12:24:33;;;;;;;;;;;;;;;25.09;100.00;97688.38;4879597;29;20239;-70
2022/06/08 12:27:10;;;;;;;;;;;;;;;25.19;100.00;97692.63;4884052;29;19982;-70
2022/06/08 12:29:45;;;;;;;;;;;;;;;25.07;100.00;97690.19;4878769;29;19959;-70
2022/06/08 12:32:16;;;;;;;;;;;;;;;25.16;100.00;97684.28;4875109;29;19950;-70
2022/06/08 12:34:52;;;;;;;;;;;;;;;25.24;100.00;97685.34;4877758;29;19955;-70
2022/06/08 12:37:26;;;;;;;;;;;;;;;25.22;100.00;97683.00;4878450;29;19956;-70
2022/06/08 12:39:54;;;;;;;;;;;;;;;25.20;100.00;97676.22;4875672;29;20285;-70
2022/06/08 12:42:25;;;;;;;;;;;;;;;25.14;100.00;97681.13;4879978;29;19953;-70
2022/06/08 12:44:56;;;;;;;;;;;;;;;25.31;100.00;97677.06;4878722;29;20271;-70
2022/06/08 12:47:31;;;;;;;;;;;;;;;25.30;100.00;97669.81;4869828;29;19949;-70
2022/06/08 12:50:04;;;;;;;;;;;;;;;25.50;100.00;97673.81;4882939;29;19957;-70
2022/06/08 12:52:34;;;;;;;;;;;;;;;25.68;100.00;97671.28;4882428;29;19965;-70
2022/06/08 12:55:02;;;;;;;;;;;;;;;25.85;100.00;97672.13;4887363;29;20299;-70
2022/06/08 12:57:31;;;;;;;;;;;;;;;25.89;100.00;97677.63;4883809;29;19958;-70
2022/06/08 12:59:59;;;;;;;;;;;;;;;26.00;100.00;97669.03;4884306;29;19951;-70
2022/06/08 13:02:29;;;;;;;;;;;;;;;26.17;100.00;97671.97;4881772;29;20338;-71
2022/06/08 13:04:57;;;;;;;;;;;;;;;26.18;100.00;97664.94;4898736;29;19970;-70
2022/06/08 13:07:33;;;;;;;;;;;;;;;26.14;100.00;97658.69;4881783;29;19952;-70
2022/06/08 13:10:01;;;;;;;;;;;;;;;25.95;100.00;97664.88;4886999;29;19958;-70
2022/06/08 13:12:33;;;;;;;;;;;;;;;26.08;100.00;97653.72;4881781;29;20658;-71
2022/06/08 13:15:01;;;;;;;;;;;;;;;26.02;100.00;97657.84;4881334;29;20259;-70
2022/06/08 13:17:28;;;;;;;;;;;;;;;26.03;100.00;97653.69;4879162;29;19951;-71
2022/06/08 13:19:57;;;;;;;;;;;;;;;25.75;100.00;97649.97;4882308;29;19952;-70
2022/06/08 13:22:26;;;;;;;;;;;;;;;25.59;100.00;97650.69;4881014;29;19961;-70
2022/06/08 13:24:54;;;;;;;;;;;;;;;25.70;100.00;97645.03;4883380;29;19971;-71
2022/06/08 13:27:21;;;;;;;;;;;;;;;25.42;100.00;97642.78;4878829;29;19953;-71
2022/06/08 13:29:48;;;;;;;;;;;;;;;25.43;100.00;97641.47;4893012;29;19954;-71
2022/06/08 13:32:17;;;;;;;;;;;;;;;25.41;100.00;97638.34;4885020;29;19955;-70
2022/06/08 13:34:45;;;;;;;;;;;;;;;25.28;100.00;97640.13;4887014;29;19952;-70
2022/06/08 13:37:33;;;;;;;;;;;;;;;25.35;100.00;97634.69;4882493;29;19950;-70
2022/06/08 13:40:00;;;;;;;;;;;;;;;25.46;100.00;97633.97;4878840;29;19980;-70
2022/06/08 13:42:29;;;;;;;;;;;;;;;25.40;100.00;97633.16;4878152;29;20347;-70
2022/06/08 13:44:56;;;;;;;;;;;;;;;25.37;100.00;97625.59;4881808;29;19953;-70
2022/06/08 13:47:26;;;;;;;;;;;;;;;25.23;100.00;97627.34;4877535;29;19949;-70
2022/06/08 13:49:55;;;;;;;;;;;;;;;25.28;100.00;97617.22;4880815;29;20018;-70
2022/06/08 13:52:26;;;;;;;;;;;;;;;25.52;100.00;97620.47;4878532;29;19975;-70
2022/06/08 13:54:54;;;;;;;;;;;;;;;25.54;100.00;97615.00;4878263;29;19954;-70
2022/06/08 13:57:23;;;;;;;;;;;;;;;25.62;100.00;97612.44;4881892;29;19957;-70
2022/06/08 13:59:52;;;;;;;;;;;;;;;25.56;100.00;97611.63;4886190;29;19957;-70
2022/06/08 14:02:19;;;;;;;;;;;;;;;25.60;100.00;97604.38;4882974;29;19958;-70
2022/06/08 14:04:49;;;;;;;;;;;;;;;25.68;100.00;97601.78;4882989;29;19946;-70
2022/06/08 14:13:04;;;;;;;;;;;;;;;25.80;100.00;97601.28;4881307;29;20329;-71
2022/06/08 14:15:32;;;;;;;;;;;;;;;25.86;100.00;97599.22;4881443;29;19957;-70
2022/06/08 14:17:59;;;;;;;;;;;;;;;25.95;100.00;97598.97;4880296;29;19963;-70
2022/06/08 14:20:32;;;;;;;;;;;;;;;25.98;100.00;97583.63;4882250;29;19960;-70
2022/06/08 14:23:01;;;;;;;;;;;;;;;25.92;100.00;97587.78;4882514;29;20371;-70
2022/06/08 14:25:28;;;;;;;;;;;;;;;25.74;100.00;97589.06;4881018;29;19972;-70
2022/06/08 14:27:56;;;;;;;;;;;;;;;25.48;100.00;97579.84;4881322;29;19954;-70
2022/06/08 14:30:23;;;;;;;;;;;;;;;25.49;100.00;97583.50;4881999;29;19967;-71
2022/06/08 14:32:55;;;;;;;;;;;;;;;25.55;100.00;97581.44;4881732;29;19969;-70
2022/06/08 14:35:29;;;;;;;;;;;;;;;25.58;100.00;97571.84;4883396;29;19970;-70
2022/06/08 14:38:21;;;;;;;;;;;;;;;25.72;100.00;97565.09;4873247;29;19956;-71
2022/06/08 14:40:49;;;;;;;;;;;;;;;25.74;100.00;97562.50;4882520;29;19957;-71
2022/06/08 14:43:17;;;;;;;;;;;;;;;25.82;100.00;97569.28;4882523;29;20341;-71
2022/06/08 14:45:46;;;;;;;;;;;;;;;25.75;100.00;97564.81;4882976;29;19976;-71
2022/06/08 14:48:21;;;;;;;;;;;;;;;25.81;100.00;97561.97;4883379;29;19949;-70
2022/06/08 14:50:49;;;;;;;;;;;;;;;25.65;100.00;97557.00;4883022;29;19977;-70
2022/06/08 14:53:18;;;;;;;;;;;;;;;25.34;100.00;97561.56;4882544;29;20334;-70
2022/06/08 14:58:31;;;;;;;;;;;;;;;25.26;100.00;97560.50;4882203;29;19952;-70
2022/06/08 15:00:58;;;;;;;;;;;;;;;25.24;100.00;97554.50;4882847;29;19944;-71
2022/06/08 15:03:26;;;;;;;;;;;;;;;25.18;100.00;97556.56;4883196;29;19955;-71
2022/06/08 15:05:54;;;;;;;;;;;;;;;25.11;100.00;97553.41;4882641;29;19966;-71
2022/06/08 15:08:21;;;;;;;;;;;;;;;25.04;100.00;97551.06;4882088;29;20250;-71
2022/06/08 15:13:38;;;;;;;;;;;;;;;25.02;100.00;97553.63;4882562;29;19956;-71
2022/06/08 15:16:05;;;;;;;;;;;;;;;24.93;100.00;97551.78;4882370;29;19956;-70
2022/06/08 15:18:33;;;;;;;;;;;;;;;25.06;100.00;97549.25;4881751;29;19955;-71
2022/06/08 15:21:00;;;;;;;;;;;;;;;25.01;100.00;97554.94;4882263;29;19958;-71
2022/06/08 15:23:27;;;;;;;;;;;;;;;24.89;100.00;97544.72;4882596;29;19955;-70
2022/06/08 15:25:55;;;;;;;;;;;;;;;24.88;100.00;97549.66;4882130;29;20365;-70
2022/06/08 15:28:24;;;;;;;;;;;;;;;24.93;100.00;97548.91;4882701;29;19952;-71
2022/06/08 15:30:52;;;;;;;;;;;;;;;24.89;100.00;97547.59;4881070;29;19953;-71
2022/06/08 15:33:23;;;;;;;;;;;;;;;24.65;100.00;97553.66;4879061;29;19957;-71
2022/06/08 15:36:02;;;;;;;;;;;;;;;24.66;100.00;97552.38;4882605;29;19948;-71
2022/06/08 15:38:32;;;;;;;;;;;;;;;24.64;100.00;97544.31;4882011;29;19952;-71
2022/06/08 15:40:59;;;;;;;;;;;;;;;24.63;100.00;97539.09;4884339;29;19947;-71
2022/06/08 15:43:27;;;;;;;;;;;;;;;24.59;100.00;97535.69;4885090;29;19949;-71
2022/06/08 15:45:55;;;;;;;;;;;;;;;24.50;100.00;97539.53;4884918;29;19952;-70
2022/06/08 15:48:22;;;;;;;;;;;;;;;24.38;100.00;97539.97;4886196;29;19955;-70
2022/06/08 15:50:54;;;;;;;;;;;;;;;24.38;100.00;97534.28;4886100;29;19973;-70
2022/06/08 15:53:29;;;;;;;;;;;;;;;24.41;100.00;97530.38;4885368;29;19952;-70
2022/06/08 15:55:56;;;;;;;;;;;;;;;24.33;100.00;97529.28;4885700;29;19948;-70
2022/06/08 15:58:24;;;;;;;;;;;;;;;24.25;100.00;97519.63;4885053;29;19952;-70
2022/06/08 16:00:52;;;;;;;;;;;;;;;24.16;100.00;97520.56;4885103;29;19975;-70
2022/06/08 16:03:20;;;;;;;;;;;;;;;24.14;100.00;97515.38;4884366;29;20239;-70
2022/06/08 16:05:48;;;;;;;;;;;;;;;24.06;100.00;97514.25;4884764;29;19949;-71
2022/06/08 16:08:15;;;;;;;;;;;;;;;23.94;100.00;97515.44;4884770;29;19963;-70
2022/06/08 16:10:43;;;;;;;;;;;;;;;23.94;100.00;97517.53;4885115;29;20360;-70
2022/06/08 16:13:12;;;;;;;;;;;;;;;23.97;100.00;97522.22;4884624;29;20351;-70
2022/06/08 16:15:40;;;;;;;;;;;;;;;23.91;100.00;97509.97;4884505;29;19954;-69
2022/06/08 16:18:08;;;;;;;;;;;;;;;23.91;100.00;97502.19;4885395;29;19947;-70
2022/06/08 16:20:35;;;;;;;;;;;;;;;23.87;100.00;97495.13;4885350;29;19958;-70
2022/06/08 16:23:04;;;;;;;;;;;;;;;23.83;100.00;97498.22;4884538;29;20356;-70
2022/06/08 16:25:31;;;;;;;;;;;;;;;23.84;100.00;97502.63;4884540;29;19948;-70
2022/06/08 16:27:59;;;;;;;;;;;;;;;23.75;100.00;97508.53;4884933;29;19973;-70
2022/06/08 16:30:28;;;;;;;;;;;;;;;23.76;100.00;97515.03;4883934;29;19992;-68
2022/06/08 16:32:55;;;;;;;;;;;;;;;23.73;100.00;97510.31;4884037;29;19948;-69
2022/06/08 16:35:23;;;;;;;;;;;;;;;23.77;100.00;97510.91;4884540;29;19956;-71
2022/06/08 16:37:52;;;;;;;;;;;;;;;23.79;100.00;97520.53;4886234;29;19957;-71
2022/06/08 16:40:21;;;;;;;;;;;;;;;23.83;100.00;97514.56;4885371;29;19978;-70
2022/06/08 16:42:49;;;;;;;;;;;;;;;23.85;100.00;97518.50;4883977;29;19956;-70
2022/06/08 16:45:20;;;;;;;;;;;;;;;23.85;100.00;97518.50;4884788;29;20366;-69
2022/06/08 16:47:49;;;;;;;;;;;;;;;23.85;100.00;97515.63;4883898;29;20258;-69
2022/06/08 16:50:17;;;;;;;;;;;;;;;23.85;100.00;97520.56;4884309;29;19947;-69
2022/06/08 16:52:44;;;;;;;;;;;;;;;23.84;100.00;97508.34;4884027;29;19959;-70
2022/06/08 16:55:11;;;;;;;;;;;;;;;23.85;100.00;97520.56;4882545;29;19955;-70
2022/06/08 17:00:24;;;;;;;;;;;;;;;23.82;100.00;97510.94;4883760;29;19960;-70
2022/06/08 17:02:52;;;;;;;;;;;;;;;23.81;100.00;97512.25;4883885;29;20258;-70
2022/06/08 17:05:22;;;;;;;;;;;;;;;23.79;100.00;97503.41;4884713;29;19948;-70
2022/06/08 17:07:50;;;;;;;;;;;;;;;23.72;100.00;97506.69;4884242;29;19962;-69
2022/06/08 17:10:17;;;;;;;;;;;;;;;23.73;100.00;97511.13;4884560;29;20330;-69
2022/06/08 17:12:44;;;;;;;;;;;;;;;23.72;100.00;97508.78;4883778;29;19962;-70
2022/06/08 17:15:12;;;;;;;;;;;;;;;23.66;100.00;97517.28;4881114;29;19961;-70
2022/06/08 17:17:39;;;;;;;;;;;;;;;23.60;100.00;97515.69;4885158;29;20353;-70
2022/06/08 17:20:08;;;;;;;;;;;;;;;23.61;100.00;97522.94;4884720;29;19952;-71
2022/06/08 17:22:37;;;;;;;;;;;;;;;23.44;100.00;97522.78;4882807;29;19953;-70
2022/06/08 17:25:05;;;;;;;;;;;;;;;23.32;100.00;97523.91;4883913;29;20223;-70
2022/06/08 17:27:32;;;;;;;;;;;;;;;23.23;100.00;97519.13;4881427;29;19965;-70
2022/06/08 17:30:00;;;;;;;;;;;;;;;23.03;100.00;97518.38;4883589;29;19962;-70
2022/06/08 17:32:27;;;;;;;;;;;;;;;22.86;100.00;97521.81;4884277;29;19955;-70
2022/06/08 17:34:54;;;;;;;;;;;;;;;22.80;100.00;97531.56;4883466;29;19956;-69
2022/06/08 17:37:22;;;;;;;;;;;;;;;22.71;100.00;97532.50;4883918;29;19954;-70
2022/06/08 17:39:49;;;;;;;;;;;;;;;22.63;100.00;97539.13;4883085;29;20239;-71
2022/06/08 17:42:22;;;;;;;;;;;;;;;22.58;100.00;97534.09;4883016;29;19950;-70
2022/06/08 17:44:52;;;;;;;;;;;;;;;22.51;100.00;97543.84;4883221;29;19951;-70
2022/06/08 17:47:20;;;;;;;;;;;;;;;22.47;100.00;97542.50;4883605;29;20082;-70
2022/06/08 17:49:47;;;;;;;;;;;;;;;22.43;100.00;97541.91;4882560;29;19956;-70
2022/06/08 17:52:15;;;;;;;;;;;;;;;22.39;100.00;97538.47;4883395;29;19979;-70
2022/06/08 17:54:42;;;;;;;;;;;;;;;22.34;100.00;97551.38;4883499;29;19952;-70
2022/06/08 17:57:09;;;;;;;;;;;;;;;22.31;100.00;97540.94;4883532;29;20245;-70
2022/06/08 17:59:40;;;;;;;;;;;;;;;22.18;100.00;97537.63;4884109;29;20216;-70
2022/06/08 18:02:16;;;;;;;;;;;;;;;22.22;100.00;97524.00;4883466;29;19952;-70
2022/06/08 18:04:44;;;;;;;;;;;;;;;22.18;100.00;97523.38;4883492;29;20252;-70
2022/06/08 18:07:12;;;;;;;;;;;;;;;22.11;100.00;97512.41;4883114;29;19979;-70
2022/06/08 18:09:40;;;;;;;;;;;;;;;22.06;100.00;97513.91;4884216;29;20218;-70
2022/06/08 18:12:09;;;;;;;;;;;;;;;21.83;100.00;97511.94;4884231;29;19955;-71
2022/06/08 18:14:41;;;;;;;;;;;;;;;21.73;100.00;97509.69;4883859;29;20238;-71
2022/06/08 18:17:09;;;;;;;;;;;;;;;21.71;100.00;97507.34;4883339;29;20338;-71
2022/06/08 18:19:37;;;;;;;;;;;;;;;21.63;100.00;97509.00;4883776;29;19949;-70
2022/06/08 18:22:05;;;;;;;;;;;;;;;21.57;100.00;97505.28;4883443;29;19962;-71
2022/06/08 18:24:33;;;;;;;;;;;;;;;21.59;100.00;97502.75;4883929;29;19952;-70
2022/06/08 18:27:05;;;;;;;;;;;;;;;21.63;100.00;97499.69;4884014;29;19961;-70
2022/06/08 18:29:36;;;;;;;;;;;;;;;21.62;100.00;97503.81;4881413;29;20326;-70
2022/06/08 18:32:05;;;;;;;;;;;;;;;21.58;100.00;97501.16;4883345;29;19962;-71
2022/06/08 18:34:32;;;;;;;;;;;;;;;21.58;100.00;97504.00;4881957;29;19953;-69
2022/06/08 18:37:00;;;;;;;;;;;;;;;21.57;100.00;97505.28;4882483;29;19959;-69
2022/06/08 18:39:27;;;;;;;;;;;;;;;21.62;100.00;97506.66;4882800;29;19952;-68
2022/06/08 18:41:57;;;;;;;;;;;;;;;21.54;100.00;97492.81;4882728;29;19950;-68
2022/06/08 18:44:24;;;;;;;;;;;;;;;21.56;100.00;97498.03;4883421;29;19955;-68
2022/06/08 18:46:53;;;;;;;;;;;;;;;21.57;100.00;97497.53;4883358;29;20256;-68
2022/06/08 18:49:23;;;;;;;;;;;;;;;21.53;100.00;97496.16;4882816;29;19975;-68
2022/06/08 18:51:51;;;;;;;;;;;;;;;21.50;100.00;97495.09;4879041;29;19979;-68
2022/06/08 18:54:20;;;;;;;;;;;;;;;21.49;100.00;97493.50;4881319;29;19959;-68
2022/06/08 18:56:47;;;;;;;;;;;;;;;21.46;100.00;97485.19;4881847;29;19958;-68
2022/06/08 18:59:16;;;;;;;;;;;;;;;21.41;100.00;97489.50;4881148;29;19953;-68
2022/06/08 19:01:43;;;;;;;;;;;;;;;21.35;100.00;97477.22;4892558;29;19960;-68
2022/06/08 19:04:12;;;;;;;;;;;;;;;21.32;100.00;97480.28;4879688;29;19951;-69
2022/06/08 19:06:41;;;;;;;;;;;;;;;21.29;100.00;97464.97;4879651;29;19967;-68
2022/06/08 19:09:09;;;;;;;;;;;;;;;21.26;100.00;97465.94;4879759;29;19983;-68
2022/06/08 19:11:39;;;;;;;;;;;;;;;21.25;100.00;97466.44;4880357;29;19968;-67